createdAt,value
2017-06-30T00:00:35.856Z,99.99
2017-06-30T00:01:44.746Z,99.99
2017-06-30T00:02:54.283Z,99.99
2017-06-30T00:04:03.219Z,99.99
2017-06-30T00:05:12.109Z,99.99
2017-06-30T00:06:21.325Z,99.99
2017-06-30T00:07:30.539Z,99.99
2017-06-30T00:08:39.426Z,99.99
2017-06-30T00:09:48.688Z,99.99
2017-06-30T00:10:57.896Z,99.99
2017-06-30T00:12:07.435Z,99.99
2017-06-30T00:13:16.976Z,99.99
2017-06-30T00:14:25.866Z,99.99
2017-06-30T00:15:34.954Z,99.99
2017-06-30T00:16:44.816Z,99.99
2017-06-30T00:17:54.351Z,99.99
2017-06-30T00:19:03.237Z,99.99
2017-06-30T00:20:12.770Z,99.99
2017-06-30T00:21:21.657Z,99.99
2017-06-30T00:22:30.544Z,99.99
2017-06-30T00:23:39.758Z,99.99
2017-06-30T00:24:48.969Z,99.99
2017-06-30T00:25:57.857Z,99.99
2017-06-30T00:27:07.045Z,99.99
2017-06-30T00:28:15.933Z,99.99
2017-06-30T00:29:24.863Z,99.99
2017-06-30T00:30:33.748Z,99.99
2017-06-30T00:31:42.964Z,99.99
2017-06-30T00:32:52.002Z,99.99
2017-06-30T00:34:00.892Z,99.99
2017-06-30T00:35:10.105Z,99.99
2017-06-30T00:36:18.992Z,99.99
2017-06-30T00:37:28.530Z,99.99
2017-06-30T00:38:37.628Z,99.99
2017-06-30T00:39:46.519Z,99.99
2017-06-30T00:40:55.406Z,99.99
2017-06-30T00:42:04.295Z,99.99
2017-06-30T00:43:13.183Z,99.99
2017-06-30T00:44:22.068Z,99.99
2017-06-30T00:45:31.279Z,99.99
2017-06-30T00:46:40.170Z,99.99
2017-06-30T00:47:49.390Z,99.99
2017-06-30T00:48:58.276Z,99.99
2017-06-30T00:50:07.262Z,99.99
2017-06-30T00:51:16.152Z,99.99
2017-06-30T00:52:25.045Z,99.99
2017-06-30T00:53:34.256Z,99.99
2017-06-30T00:54:43.139Z,99.99
2017-06-30T00:55:52.503Z,99.99
2017-06-30T00:57:01.716Z,99.99
2017-06-30T00:58:11.249Z,99.99
2017-06-30T00:59:20.136Z,99.99
2017-06-30T01:00:29.350Z,99.99
2017-06-30T01:01:38.375Z,99.99
2017-06-30T01:02:47.265Z,99.99
2017-06-30T01:03:56.151Z,99.99
2017-06-30T01:05:05.363Z,99.99
2017-06-30T01:06:14.251Z,99.99
2017-06-30T01:07:23.191Z,99.99
2017-06-30T01:08:32.408Z,99.99
2017-06-30T01:09:41.297Z,99.99
2017-06-30T01:10:50.185Z,99.99
2017-06-30T01:11:59.072Z,99.99
2017-06-30T01:13:08.108Z,99.99
2017-06-30T01:14:17.319Z,99.99
2017-06-30T01:15:26.211Z,99.99
2017-06-30T01:16:35.432Z,99.99
2017-06-30T01:17:44.320Z,99.99
2017-06-30T01:18:53.358Z,99.99
2017-06-30T01:20:02.892Z,99.99
2017-06-30T01:21:11.782Z,99.99
2017-06-30T01:22:21.322Z,99.99
2017-06-30T01:23:30.860Z,99.99
2017-06-30T01:24:40.725Z,99.99
2017-06-30T01:25:50.267Z,99.99
2017-06-30T01:26:59.481Z,99.99
2017-06-30T01:28:08.367Z,99.99
2017-06-30T01:29:17.253Z,99.99
2017-06-30T01:30:26.141Z,99.99
2017-06-30T01:31:35.030Z,99.99
2017-06-30T01:32:43.916Z,99.99
2017-06-30T01:33:52.800Z,99.99
2017-06-30T01:35:01.696Z,99.99
2017-06-30T01:36:10.592Z,99.99
2017-06-30T01:37:19.806Z,99.99
2017-06-30T01:38:28.697Z,99.99
2017-06-30T01:39:37.584Z,99.99
2017-06-30T01:40:46.477Z,99.99
2017-06-30T01:41:55.839Z,99.99
2017-06-30T01:43:05.056Z,99.99
2017-06-30T01:44:13.944Z,99.99
2017-06-30T01:45:22.829Z,99.99
2017-06-30T01:46:31.717Z,99.99
2017-06-30T01:47:40.988Z,99.99
2017-06-30T01:48:50.198Z,99.99
2017-06-30T01:49:59.734Z,99.99
2017-06-30T01:51:08.965Z,99.99
2017-06-30T01:52:17.861Z,99.99
2017-06-30T01:53:27.273Z,99.99
2017-06-30T01:54:36.158Z,99.99
2017-06-30T01:55:45.045Z,99.99
2017-06-30T01:56:53.941Z,99.99
2017-06-30T01:58:02.830Z,99.99
2017-06-30T01:59:11.918Z,99.99
2017-06-30T02:00:21.128Z,99.99
2017-06-30T02:01:30.344Z,99.99
2017-06-30T02:02:39.558Z,99.99
2017-06-30T02:03:48.444Z,99.99
2017-06-30T02:04:57.955Z,99.99
2017-06-30T02:06:07.167Z,99.99
2017-06-30T02:07:16.054Z,99.99
2017-06-30T02:08:24.948Z,99.99
2017-06-30T02:09:33.834Z,99.99
2017-06-30T02:10:42.822Z,99.99
2017-06-30T02:11:51.713Z,99.99
2017-06-30T02:13:00.926Z,99.99
2017-06-30T02:14:09.811Z,99.99
2017-06-30T02:15:19.019Z,99.99
2017-06-30T02:16:27.963Z,99.99
2017-06-30T02:17:37.174Z,99.99
2017-06-30T02:18:46.386Z,99.99
2017-06-30T02:19:55.926Z,99.99
2017-06-30T02:21:05.136Z,99.99
2017-06-30T02:22:14.179Z,99.99
2017-06-30T02:23:23.071Z,99.99
2017-06-30T02:24:32.283Z,99.99
2017-06-30T02:25:41.499Z,99.99
2017-06-30T02:26:50.383Z,99.99
2017-06-30T02:27:59.571Z,99.99
2017-06-30T02:29:08.782Z,99.99
2017-06-30T02:30:17.674Z,99.99
2017-06-30T02:31:26.887Z,99.99
2017-06-30T02:32:36.422Z,99.99
2017-06-30T02:33:46.261Z,99.99
2017-06-30T02:34:55.472Z,99.99
2017-06-30T02:36:04.364Z,99.99
2017-06-30T02:37:13.255Z,99.99
2017-06-30T02:38:22.142Z,99.99
2017-06-30T02:39:32.059Z,99.99
2017-06-30T02:40:41.271Z,99.99
2017-06-30T02:41:50.159Z,99.99
2017-06-30T02:42:59.371Z,99.99
2017-06-30T02:44:08.258Z,99.99
2017-06-30T02:45:17.249Z,99.99
2017-06-30T02:46:26.462Z,99.99
2017-06-30T02:47:35.354Z,99.99
2017-06-30T02:48:44.245Z,99.99
2017-06-30T02:49:53.788Z,99.99
2017-06-30T02:51:03.101Z,99.99
2017-06-30T02:52:11.991Z,99.99
2017-06-30T02:53:20.907Z,99.99
2017-06-30T02:54:30.115Z,99.99
2017-06-30T02:55:39.000Z,99.99
2017-06-30T02:56:48.036Z,99.99
2017-06-30T02:57:56.923Z,99.99
2017-06-30T02:59:06.138Z,99.99
2017-06-30T03:00:15.676Z,99.99
2017-06-30T03:01:24.572Z,99.99
2017-06-30T03:02:33.461Z,99.99
2017-06-30T03:03:42.670Z,99.99
2017-06-30T03:04:51.554Z,99.99
2017-06-30T03:06:00.764Z,99.99
2017-06-30T03:07:09.649Z,99.99
2017-06-30T03:08:18.962Z,99.99
2017-06-30T03:09:28.171Z,99.99
2017-06-30T03:10:37.058Z,99.99
2017-06-30T03:11:45.945Z,99.99
2017-06-30T03:12:55.165Z,99.99
2017-06-30T03:14:04.631Z,99.99
2017-06-30T03:15:13.842Z,99.99
2017-06-30T03:16:22.728Z,99.99
2017-06-30T03:17:31.617Z,99.99
2017-06-30T03:18:40.831Z,99.99
2017-06-30T03:19:49.866Z,99.99
2017-06-30T03:20:58.750Z,99.99
2017-06-30T03:22:07.963Z,99.99
2017-06-30T03:23:16.861Z,99.99
2017-06-30T03:24:26.724Z,99.99
2017-06-30T03:25:35.611Z,99.99
2017-06-30T03:26:44.507Z,99.99
2017-06-30T03:27:53.395Z,99.99
2017-06-30T03:29:02.278Z,99.99
2017-06-30T03:30:11.168Z,99.99
2017-06-30T03:31:20.435Z,99.99
2017-06-30T03:32:29.322Z,99.99
2017-06-30T03:33:38.210Z,99.99
2017-06-30T03:34:47.424Z,99.99
2017-06-30T03:35:56.310Z,99.99
2017-06-30T03:37:05.847Z,99.99
2017-06-30T03:38:14.739Z,99.99
2017-06-30T03:39:23.628Z,99.99
2017-06-30T03:40:32.510Z,99.99
2017-06-30T03:41:41.398Z,99.99
2017-06-30T03:42:51.016Z,99.99
2017-06-30T03:44:00.234Z,99.99
2017-06-30T03:45:09.774Z,99.99
2017-06-30T03:46:18.992Z,99.99
2017-06-30T03:47:28.542Z,99.99
2017-06-30T03:48:37.627Z,99.99
2017-06-30T03:49:46.836Z,99.99
2017-06-30T03:50:55.724Z,99.99
2017-06-30T03:52:04.616Z,99.99
2017-06-30T03:53:13.835Z,99.99
2017-06-30T03:54:23.144Z,99.99
2017-06-30T03:55:32.032Z,99.99
2017-06-30T03:56:40.933Z,99.99
2017-06-30T03:57:50.142Z,99.99
2017-06-30T03:58:59.027Z,99.99
2017-06-30T04:00:08.017Z,99.99
2017-06-30T04:01:17.230Z,99.99
2017-06-30T04:02:26.115Z,99.99
2017-06-30T04:03:35.001Z,99.99
2017-06-30T04:04:44.219Z,99.99
2017-06-30T04:05:53.354Z,99.99
2017-06-30T04:07:02.567Z,99.99
2017-06-30T04:08:11.453Z,99.99
2017-06-30T04:09:20.340Z,99.99
2017-06-30T04:10:29.875Z,99.99
2017-06-30T04:11:39.088Z,99.99
2017-06-30T04:12:48.299Z,99.99
2017-06-30T04:13:57.506Z,99.99
2017-06-30T04:15:06.391Z,99.99
2017-06-30T04:16:15.281Z,99.99
2017-06-30T04:17:24.271Z,99.99
2017-06-30T04:18:33.478Z,99.99
2017-06-30T04:19:43.013Z,99.99
2017-06-30T04:20:52.231Z,99.99
2017-06-30T04:22:01.442Z,99.99
2017-06-30T04:23:10.761Z,99.99
2017-06-30T04:24:20.305Z,99.99
2017-06-30T04:25:29.189Z,99.99
2017-06-30T04:26:38.398Z,99.99
2017-06-30T04:27:47.936Z,99.99
2017-06-30T04:28:56.922Z,99.99
2017-06-30T04:30:05.812Z,99.99
2017-06-30T04:31:14.704Z,99.99
2017-06-30T04:32:23.594Z,99.99
2017-06-30T04:33:32.803Z,99.99
2017-06-30T04:34:42.319Z,99.99
2017-06-30T04:35:51.528Z,99.99
2017-06-30T04:37:01.070Z,99.99
2017-06-30T04:38:10.299Z,99.99
2017-06-30T04:39:19.205Z,99.99
2017-06-30T04:40:28.197Z,99.99
2017-06-30T04:41:37.127Z,99.99
2017-06-30T04:42:46.015Z,99.99
2017-06-30T04:43:54.902Z,99.99
2017-06-30T04:45:03.786Z,99.99
2017-06-30T04:46:13.251Z,99.99
2017-06-30T04:47:22.152Z,99.99
2017-06-30T04:48:31.688Z,99.99
2017-06-30T04:49:40.572Z,99.99
2017-06-30T04:50:49.785Z,99.99
2017-06-30T04:51:59.000Z,99.99
2017-06-30T04:53:08.258Z,99.99
2017-06-30T04:54:17.466Z,99.99
2017-06-30T04:55:26.687Z,99.99
2017-06-30T04:56:36.549Z,99.99
2017-06-30T04:57:45.909Z,99.99
2017-06-30T04:58:55.124Z,99.99
2017-06-30T05:00:04.012Z,99.99
2017-06-30T05:01:12.909Z,99.99
2017-06-30T05:02:21.798Z,99.99
2017-06-30T05:03:31.414Z,99.99
2017-06-30T05:04:40.305Z,99.99
2017-06-30T05:05:49.194Z,99.99
2017-06-30T05:06:58.086Z,99.99
2017-06-30T05:08:06.979Z,99.99
2017-06-30T05:09:16.839Z,99.99
2017-06-30T05:10:26.706Z,99.99
2017-06-30T05:11:35.594Z,99.99
2017-06-30T05:12:44.492Z,99.99
2017-06-30T05:13:53.384Z,99.99
2017-06-30T05:15:02.801Z,99.99
2017-06-30T05:16:12.020Z,99.99
2017-06-30T05:17:21.557Z,99.99
2017-06-30T05:18:30.774Z,99.99
2017-06-30T05:19:39.985Z,99.99
2017-06-30T05:20:49.030Z,99.99
2017-06-30T05:21:57.919Z,99.99
2017-06-30T05:23:06.810Z,99.99
2017-06-30T05:24:16.354Z,99.99
2017-06-30T05:25:25.238Z,99.99
2017-06-30T05:26:34.498Z,99.99
2017-06-30T05:27:43.385Z,99.99
2017-06-30T05:28:52.598Z,99.99
2017-06-30T05:30:01.810Z,99.99
2017-06-30T05:31:10.698Z,99.99
2017-06-30T05:32:19.734Z,99.99
2017-06-30T05:33:28.628Z,99.99
2017-06-30T05:34:37.518Z,99.99
2017-06-30T05:35:46.735Z,99.99
2017-06-30T05:36:55.648Z,99.99
2017-06-30T05:38:04.635Z,99.99
2017-06-30T05:39:13.524Z,99.99
2017-06-30T05:40:22.410Z,99.99
2017-06-30T05:41:31.304Z,99.99
2017-06-30T05:42:40.518Z,99.99
2017-06-30T05:43:49.514Z,99.99
2017-06-30T05:44:58.403Z,99.99
2017-06-30T05:46:07.294Z,99.99
2017-06-30T05:47:16.182Z,99.99
2017-06-30T05:48:25.074Z,99.99
2017-06-30T05:49:34.020Z,99.99
2017-06-30T05:50:43.236Z,99.99
2017-06-30T05:51:52.772Z,99.99
2017-06-30T05:53:01.658Z,99.99
2017-06-30T05:54:10.549Z,99.99
2017-06-30T05:55:19.437Z,99.99
2017-06-30T05:56:28.652Z,99.99
2017-06-30T05:57:37.864Z,99.99
2017-06-30T05:58:46.752Z,99.99
2017-06-30T05:59:55.639Z,99.99
2017-06-30T06:01:04.956Z,99.99
2017-06-30T06:02:13.848Z,99.99
2017-06-30T06:03:23.065Z,99.99
2017-06-30T06:04:31.952Z,99.99
2017-06-30T06:05:40.843Z,99.99
2017-06-30T06:06:50.429Z,99.99
2017-06-30T06:07:59.967Z,99.99
2017-06-30T06:09:08.856Z,99.99
2017-06-30T06:10:18.068Z,99.99
2017-06-30T06:11:26.964Z,99.99
2017-06-30T06:12:36.175Z,99.99
2017-06-30T06:13:45.065Z,99.99
2017-06-30T06:14:54.929Z,99.99
2017-06-30T06:16:03.819Z,99.99
2017-06-30T06:17:12.711Z,99.99
2017-06-30T06:18:21.700Z,99.99
2017-06-30T06:19:30.635Z,99.99
2017-06-30T06:20:39.870Z,99.99
2017-06-30T06:21:49.729Z,99.99
2017-06-30T06:22:58.950Z,99.99
2017-06-30T06:24:08.313Z,99.99
2017-06-30T06:25:17.214Z,99.99
2017-06-30T06:26:26.104Z,99.99
2017-06-30T06:27:34.996Z,99.99
2017-06-30T06:28:44.211Z,99.99
2017-06-30T06:29:53.306Z,99.99
2017-06-30T06:31:02.194Z,99.99
2017-06-30T06:32:11.084Z,99.99
2017-06-30T06:33:19.976Z,99.99
2017-06-30T06:34:29.517Z,99.99
2017-06-30T06:35:38.554Z,99.99
2017-06-30T06:36:47.442Z,99.99
2017-06-30T06:37:56.661Z,99.99
2017-06-30T06:39:05.876Z,99.99
2017-06-30T06:40:14.769Z,99.99
2017-06-30T06:41:23.755Z,99.99
2017-06-30T06:42:32.989Z,99.99
2017-06-30T06:43:42.200Z,99.99
2017-06-30T06:44:51.089Z,99.99
2017-06-30T06:45:59.982Z,99.99
2017-06-30T06:47:09.026Z,99.99
2017-06-30T06:48:18.575Z,99.99
2017-06-30T06:49:27.464Z,99.99
2017-06-30T06:50:36.351Z,99.99
2017-06-30T06:51:45.566Z,99.99
2017-06-30T06:52:54.555Z,99.99
2017-06-30T06:54:03.450Z,99.99
2017-06-30T06:55:12.336Z,99.99
2017-06-30T06:56:21.229Z,99.99
2017-06-30T06:57:30.774Z,99.99
2017-06-30T06:58:39.720Z,99.99
2017-06-30T06:59:48.644Z,99.99
2017-06-30T07:00:57.860Z,99.99
2017-06-30T07:02:07.405Z,99.99
2017-06-30T07:03:16.294Z,99.99
2017-06-30T07:04:25.606Z,99.99
2017-06-30T07:05:34.817Z,99.99
2017-06-30T07:06:43.717Z,99.99
2017-06-30T07:07:52.610Z,99.99
2017-06-30T07:09:01.819Z,99.99
2017-06-30T07:10:11.189Z,99.99
2017-06-30T07:11:20.740Z,99.99
2017-06-30T07:12:29.633Z,99.99
2017-06-30T07:13:38.862Z,99.99
2017-06-30T07:14:47.751Z,99.99
2017-06-30T07:15:57.039Z,99.99
2017-06-30T07:17:05.928Z,99.99
2017-06-30T07:18:14.819Z,99.99
2017-06-30T07:19:24.032Z,99.99
2017-06-30T07:20:33.250Z,99.99
2017-06-30T07:21:42.889Z,99.99
2017-06-30T07:22:52.100Z,99.99
2017-06-30T07:24:00.987Z,99.99
2017-06-30T07:25:09.875Z,99.99
2017-06-30T07:26:18.767Z,99.99
2017-06-30T07:27:27.984Z,99.99
2017-06-30T07:28:37.198Z,99.99
2017-06-30T07:29:46.090Z,99.99
2017-06-30T07:30:55.308Z,99.99
2017-06-30T07:32:04.200Z,99.99
2017-06-30T07:33:13.146Z,99.99
2017-06-30T07:34:22.040Z,99.99
2017-06-30T07:35:30.927Z,99.99
2017-06-30T07:36:39.816Z,99.99
2017-06-30T07:37:48.706Z,99.99
2017-06-30T07:38:58.122Z,99.99
2017-06-30T07:40:07.012Z,99.99
2017-06-30T07:41:16.230Z,99.99
2017-06-30T07:42:25.445Z,99.99
2017-06-30T07:43:34.336Z,99.99
2017-06-30T07:44:43.604Z,99.99
2017-06-30T07:45:52.818Z,99.99
2017-06-30T07:47:01.712Z,99.99
2017-06-30T07:48:10.928Z,99.99
2017-06-30T07:49:19.821Z,99.99
2017-06-30T07:50:29.112Z,99.99
2017-06-30T07:51:38.328Z,99.99
2017-06-30T07:52:47.545Z,99.99
2017-06-30T07:53:56.432Z,99.99
2017-06-30T07:55:05.651Z,99.99
2017-06-30T07:56:14.920Z,99.99
2017-06-30T07:57:23.815Z,99.99
2017-06-30T07:58:32.718Z,99.99
2017-06-30T07:59:41.930Z,99.99
2017-06-30T08:00:51.143Z,99.99
2017-06-30T08:02:00.558Z,99.99
2017-06-30T08:03:09.771Z,99.99
2017-06-30T08:04:18.662Z,99.99
2017-06-30T08:05:27.882Z,99.99
2017-06-30T08:06:37.112Z,99.99
2017-06-30T08:07:46.476Z,99.99
2017-06-30T08:08:55.696Z,99.99
2017-06-30T08:10:04.910Z,99.99
2017-06-30T08:11:13.815Z,99.99
2017-06-30T08:12:22.703Z,99.99
2017-06-30T08:13:31.843Z,99.99
2017-06-30T08:14:41.062Z,99.99
2017-06-30T08:15:49.964Z,99.99
2017-06-30T08:16:58.857Z,99.99
2017-06-30T08:18:07.761Z,99.99
2017-06-30T08:19:17.556Z,99.99
2017-06-30T08:20:26.782Z,99.99
2017-06-30T08:21:35.676Z,99.99
2017-06-30T08:22:44.569Z,99.99
2017-06-30T08:23:53.461Z,99.99
2017-06-30T08:25:02.754Z,99.99
2017-06-30T08:26:11.968Z,99.99
2017-06-30T08:27:21.186Z,99.99
2017-06-30T08:28:30.399Z,99.99
2017-06-30T08:29:39.615Z,99.99
2017-06-30T08:30:48.981Z,99.99
2017-06-30T08:31:57.882Z,99.99
2017-06-30T08:33:07.103Z,99.99
2017-06-30T08:34:16.323Z,99.99
2017-06-30T08:35:25.215Z,99.99
2017-06-30T08:36:34.584Z,99.99
2017-06-30T08:37:43.482Z,99.99
2017-06-30T08:38:52.701Z,99.99
2017-06-30T08:40:02.251Z,99.99
2017-06-30T08:41:12.115Z,99.99
2017-06-30T08:42:21.805Z,99.99
2017-06-30T08:43:30.698Z,99.99
2017-06-30T08:44:39.917Z,99.99
2017-06-30T08:45:49.133Z,99.99
2017-06-30T08:46:58.029Z,99.99
2017-06-30T08:48:06.918Z,99.99
2017-06-30T08:49:16.140Z,99.99
2017-06-30T08:50:25.030Z,99.99
2017-06-30T08:51:35.241Z,99.99
2017-06-30T08:52:44.128Z,99.99
2017-06-30T08:53:53.121Z,99.99
2017-06-30T08:55:02.022Z,99.99
2017-06-30T08:56:10.953Z,99.99
2017-06-30T08:57:20.180Z,99.99
2017-06-30T08:58:29.395Z,99.99
2017-06-30T08:59:38.820Z,99.99
2017-06-30T09:00:47.715Z,99.99
2017-06-30T09:01:56.936Z,99.99
2017-06-30T09:03:06.479Z,99.99
2017-06-30T09:04:16.019Z,99.99
2017-06-30T09:05:25.716Z,99.99
2017-06-30T09:06:35.257Z,99.99
2017-06-30T09:07:45.129Z,99.99
2017-06-30T09:08:55.000Z,99.99
2017-06-30T09:10:04.542Z,99.99
2017-06-30T09:11:14.238Z,99.99
2017-06-30T09:12:24.105Z,99.99
2017-06-30T09:13:32.993Z,99.99
2017-06-30T09:14:42.217Z,99.99
2017-06-30T09:15:51.111Z,99.99
2017-06-30T09:17:00.381Z,99.99
2017-06-30T09:18:09.321Z,99.99
2017-06-30T09:19:18.865Z,99.99
2017-06-30T09:20:28.081Z,99.99
2017-06-30T09:21:37.635Z,99.99
2017-06-30T09:22:47.055Z,99.99
2017-06-30T09:23:55.951Z,99.99
2017-06-30T09:25:05.497Z,99.99
2017-06-30T09:26:14.715Z,99.99
2017-06-30T09:27:23.929Z,99.99
2017-06-30T09:28:32.824Z,99.99
2017-06-30T09:29:42.041Z,99.99
2017-06-30T09:30:50.932Z,99.99
2017-06-30T09:31:59.824Z,99.99
2017-06-30T09:33:08.719Z,99.99
2017-06-30T09:34:18.093Z,99.99
2017-06-30T09:35:27.320Z,99.99
2017-06-30T09:36:36.223Z,99.99
2017-06-30T09:37:45.117Z,99.99
2017-06-30T09:38:54.006Z,99.99
2017-06-30T09:40:02.899Z,99.99
2017-06-30T09:41:11.786Z,99.99
2017-06-30T09:42:20.685Z,99.99
2017-06-30T09:43:29.900Z,99.99
2017-06-30T09:44:38.793Z,99.99
2017-06-30T09:45:48.316Z,99.99
2017-06-30T09:46:57.528Z,99.99
2017-06-30T09:48:06.419Z,99.99
2017-06-30T09:49:15.311Z,99.99
2017-06-30T09:50:24.855Z,99.99
2017-06-30T09:51:34.118Z,99.99
2017-06-30T09:52:43.009Z,99.99
2017-06-30T09:53:52.225Z,99.99
2017-06-30T09:55:01.129Z,99.99
2017-06-30T09:56:10.020Z,99.99
2017-06-30T09:57:19.435Z,99.99
2017-06-30T09:58:28.325Z,99.99
2017-06-30T09:59:37.224Z,99.99
2017-06-30T10:00:46.765Z,99.99
2017-06-30T10:01:55.985Z,99.99
2017-06-30T10:03:05.026Z,99.99
2017-06-30T10:04:14.242Z,99.99
2017-06-30T10:05:23.459Z,99.99
2017-06-30T10:06:32.363Z,99.99
2017-06-30T10:07:41.253Z,99.99
2017-06-30T10:08:50.293Z,99.99
2017-06-30T10:09:59.836Z,99.99
2017-06-30T10:11:08.737Z,99.99
2017-06-30T10:12:17.955Z,99.99
2017-06-30T10:13:26.845Z,99.99
2017-06-30T10:14:36.540Z,99.99
2017-06-30T10:15:45.432Z,99.99
2017-06-30T10:16:54.328Z,99.99
2017-06-30T10:18:03.542Z,99.99
2017-06-30T10:19:12.762Z,99.99
2017-06-30T10:20:22.276Z,99.99
2017-06-30T10:21:31.824Z,99.99
2017-06-30T10:22:40.764Z,99.99
2017-06-30T10:23:49.976Z,99.99
2017-06-30T10:24:59.530Z,99.99
2017-06-30T10:26:08.953Z,99.99
2017-06-30T10:27:18.497Z,99.99
2017-06-30T10:28:28.034Z,99.99
2017-06-30T10:29:37.253Z,99.99
2017-06-30T10:30:46.465Z,99.99
2017-06-30T10:31:55.409Z,99.99
2017-06-30T10:33:04.309Z,99.99
2017-06-30T10:34:13.528Z,99.99
2017-06-30T10:35:22.784Z,99.99
2017-06-30T10:36:32.370Z,99.99
2017-06-30T10:37:41.332Z,99.99
2017-06-30T10:38:50.545Z,99.99
2017-06-30T10:39:59.773Z,99.99
2017-06-30T10:41:08.672Z,99.99
2017-06-30T10:42:17.565Z,99.99
2017-06-30T10:43:26.856Z,99.99
2017-06-30T10:44:36.069Z,99.99
2017-06-30T10:45:45.296Z,99.99
2017-06-30T10:46:54.191Z,99.99
2017-06-30T10:48:03.096Z,99.99
2017-06-30T10:49:12.468Z,99.99
2017-06-30T10:50:22.332Z,99.99
2017-06-30T10:51:31.220Z,99.99
2017-06-30T10:52:40.438Z,99.99
2017-06-30T10:53:49.978Z,99.99
2017-06-30T10:54:59.349Z,99.99
2017-06-30T10:56:08.240Z,99.99
2017-06-30T10:57:17.451Z,99.99
2017-06-30T10:58:26.698Z,99.99
2017-06-30T10:59:36.242Z,99.99
2017-06-30T11:00:45.611Z,98
2017-06-30T11:01:54.827Z,98.1
2017-06-30T11:03:04.040Z,97.42
2017-06-30T11:04:12.945Z,97.61
2017-06-30T11:05:22.156Z,96.94
2017-06-30T11:06:31.622Z,96.37
2017-06-30T11:07:40.850Z,95.51
2017-06-30T11:08:49.738Z,95.6
2017-06-30T11:09:58.628Z,95.98
2017-06-30T11:11:07.522Z,96.37
2017-06-30T11:12:17.312Z,95.6
2017-06-30T11:13:26.904Z,95.98
2017-06-30T11:14:36.120Z,95.7
2017-06-30T11:15:45.012Z,94.93
2017-06-30T11:16:54.234Z,94.74
2017-06-30T11:18:03.606Z,94.84
2017-06-30T11:19:13.478Z,94.26
2017-06-30T11:20:23.022Z,94.84
2017-06-30T11:21:32.237Z,94.17
2017-06-30T11:22:41.129Z,93.59
2017-06-30T11:23:50.319Z,93.49
2017-06-30T11:24:59.533Z,93.4
2017-06-30T11:26:09.074Z,92.35
2017-06-30T11:27:17.963Z,92.97
2017-06-30T11:28:27.189Z,92.82
2017-06-30T11:29:36.407Z,92.25
2017-06-30T11:30:45.297Z,92.25
2017-06-30T11:31:54.189Z,91.67
2017-06-30T11:33:03.088Z,91.58
2017-06-30T11:34:11.984Z,90.33
2017-06-30T11:35:21.357Z,89.66
2017-06-30T11:36:30.249Z,89.47
2017-06-30T11:37:39.471Z,89.28
2017-06-30T11:38:48.363Z,88.46
2017-06-30T11:39:57.583Z,87.84
2017-06-30T11:41:06.624Z,87.7
2017-06-30T11:42:15.512Z,87.08
2017-06-30T11:43:24.413Z,87.46
2017-06-30T11:44:33.953Z,99.99
2017-06-30T11:45:43.494Z,99.99
2017-06-30T11:46:52.688Z,99.99
2017-06-30T11:48:01.906Z,99.99
2017-06-30T11:49:10.797Z,99.99
2017-06-30T11:50:20.073Z,99.99
2017-06-30T11:51:28.962Z,99.99
2017-06-30T11:52:38.002Z,99.99
2017-06-30T11:53:46.900Z,99.99
2017-06-30T11:54:56.125Z,99.99
2017-06-30T11:56:05.023Z,99.99
2017-06-30T11:57:13.915Z,99.99
2017-06-30T11:58:23.430Z,99.99
2017-06-30T11:59:32.329Z,99.99
2017-06-30T12:00:41.225Z,99.99
2017-06-30T12:01:50.443Z,99.99
2017-06-30T12:02:59.669Z,99.99
2017-06-30T12:04:08.711Z,99.99
2017-06-30T12:05:17.935Z,99.99
2017-06-30T12:06:27.158Z,99.99
2017-06-30T12:07:36.378Z,99.99
2017-06-30T12:08:45.605Z,99.99
2017-06-30T12:09:54.650Z,99.99
2017-06-30T12:11:03.544Z,99.99
2017-06-30T12:12:13.411Z,99.99
2017-06-30T12:13:22.625Z,99.99
2017-06-30T12:14:31.523Z,99.99
2017-06-30T12:15:40.839Z,99.99
2017-06-30T12:16:49.732Z,99.99
2017-06-30T12:17:58.624Z,99.99
2017-06-30T12:19:07.841Z,99.99
2017-06-30T12:20:17.059Z,99.99
2017-06-30T12:21:26.271Z,99.99
2017-06-30T12:22:35.171Z,99.99
2017-06-30T12:23:44.068Z,99.99
2017-06-30T12:24:53.010Z,99.99
2017-06-30T12:26:02.233Z,99.99
2017-06-30T12:27:12.027Z,99.99
2017-06-30T12:28:20.920Z,99.99
2017-06-30T12:29:29.818Z,99.99
2017-06-30T12:30:38.709Z,99.99
2017-06-30T12:31:48.253Z,99.99
2017-06-30T12:32:57.147Z,99.99
2017-06-30T12:34:06.033Z,99.99
2017-06-30T12:35:14.930Z,99.99
2017-06-30T12:36:23.820Z,99.99
2017-06-30T12:37:33.368Z,99.99
2017-06-30T12:38:42.462Z,99.99
2017-06-30T12:39:52.335Z,99.99
2017-06-30T12:41:02.198Z,99.99
2017-06-30T12:42:11.092Z,99.99
2017-06-30T12:43:19.982Z,99.99
2017-06-30T12:44:29.628Z,99.99
2017-06-30T12:45:39.172Z,99.99
2017-06-30T12:46:48.077Z,99.99
2017-06-30T12:47:56.969Z,99.99
2017-06-30T12:49:05.861Z,99.99
2017-06-30T12:50:15.380Z,99.99
2017-06-30T12:51:24.275Z,99.99
2017-06-30T12:52:33.163Z,99.99
2017-06-30T12:53:42.054Z,99.99
2017-06-30T12:54:51.315Z,99.99
2017-06-30T12:56:00.583Z,99.99
2017-06-30T12:57:09.476Z,99.99
2017-06-30T12:58:18.374Z,99.99
2017-06-30T12:59:27.594Z,99.99
2017-06-30T13:00:37.154Z,99.99
2017-06-30T13:01:46.422Z,99.99
2017-06-30T13:02:55.319Z,99.99
2017-06-30T13:04:04.867Z,99.99
2017-06-30T13:05:14.407Z,99.99
2017-06-30T13:06:23.627Z,99.99
2017-06-30T13:07:32.663Z,99.99
2017-06-30T13:08:41.552Z,99.99
2017-06-30T13:09:51.097Z,99.99
2017-06-30T13:11:00.315Z,99.99
2017-06-30T13:12:09.583Z,99.99
2017-06-30T13:13:18.577Z,99.99
2017-06-30T13:14:27.472Z,99.99
2017-06-30T13:15:36.692Z,99.99
2017-06-30T13:16:45.912Z,99.99
2017-06-30T13:17:54.804Z,99.99
2017-06-30T13:19:03.906Z,99.99
2017-06-30T13:20:12.808Z,99.99
2017-06-30T13:21:22.022Z,99.99
2017-06-30T13:22:30.918Z,99.99
2017-06-30T13:23:39.809Z,99.99
2017-06-30T13:24:49.553Z,99.99
2017-06-30T13:25:58.796Z,99.99
2017-06-30T13:27:08.007Z,99.99
2017-06-30T13:28:17.240Z,99.99
2017-06-30T13:29:26.134Z,99.99
2017-06-30T13:30:35.598Z,99.99
2017-06-30T13:31:44.491Z,99.99
2017-06-30T13:32:53.711Z,99.99
2017-06-30T13:34:02.943Z,99.99
2017-06-30T13:35:11.843Z,99.99
2017-06-30T13:36:21.392Z,99.99
2017-06-30T13:37:30.604Z,99.99
2017-06-30T13:38:39.502Z,99.99
2017-06-30T13:39:48.728Z,99.99
2017-06-30T13:40:57.944Z,99.99
2017-06-30T13:42:07.088Z,99.99
2017-06-30T13:43:16.039Z,99.99
2017-06-30T13:44:24.928Z,99.99
2017-06-30T13:45:33.829Z,99.99
2017-06-30T13:46:42.721Z,99.99
2017-06-30T13:47:52.739Z,99.99
2017-06-30T13:49:02.280Z,99.99
2017-06-30T13:50:11.502Z,99.99
2017-06-30T13:51:20.718Z,99.99
2017-06-30T13:52:29.616Z,99.99
2017-06-30T13:53:38.606Z,99.99
2017-06-30T13:54:47.825Z,99.99
2017-06-30T13:55:56.719Z,99.99
2017-06-30T13:57:05.613Z,99.99
2017-06-30T13:58:14.510Z,99.99
2017-06-30T13:59:24.028Z,99.99
2017-06-30T14:00:33.575Z,99.99
2017-06-30T14:01:42.789Z,99.99
2017-06-30T14:02:52.006Z,99.99
2017-06-30T14:04:01.233Z,99.99
2017-06-30T14:05:10.377Z,99.99
2017-06-30T14:06:19.268Z,99.99
2017-06-30T14:07:28.491Z,99.99
2017-06-30T14:08:37.711Z,99.99
2017-06-30T14:09:47.256Z,99.99
2017-06-30T14:10:56.151Z,99.99
2017-06-30T14:12:05.054Z,99.99
2017-06-30T14:13:13.951Z,99.99
2017-06-30T14:14:22.862Z,99.99
2017-06-30T14:15:32.088Z,99.99
2017-06-30T14:16:40.989Z,99.99
2017-06-30T14:17:49.930Z,99.99
2017-06-30T14:18:58.829Z,99.99
2017-06-30T14:20:07.735Z,99.99
2017-06-30T14:21:17.288Z,99.99
2017-06-30T14:22:26.298Z,99.99
2017-06-30T14:23:35.193Z,99.99
2017-06-30T14:24:44.091Z,99.99
2017-06-30T14:25:52.979Z,99.99
2017-06-30T14:27:02.520Z,99.99
2017-06-30T14:28:12.594Z,99.99
2017-06-30T14:29:22.133Z,99.99
2017-06-30T14:30:31.353Z,99.99
2017-06-30T14:31:40.241Z,99.99
2017-06-30T14:32:49.136Z,99.99
2017-06-30T14:33:58.604Z,99.99
2017-06-30T14:35:07.492Z,99.99
2017-06-30T14:36:16.385Z,99.99
2017-06-30T14:37:25.278Z,99.99
2017-06-30T14:38:34.497Z,99.99
2017-06-30T14:39:43.862Z,99.99
2017-06-30T14:40:53.405Z,99.99
2017-06-30T14:42:02.617Z,99.99
2017-06-30T14:43:11.506Z,99.99
2017-06-30T14:44:20.430Z,99.99
2017-06-30T14:45:29.799Z,99.99
2017-06-30T14:46:39.339Z,99.99
2017-06-30T14:47:48.230Z,99.99
2017-06-30T14:48:57.775Z,99.99
2017-06-30T14:50:06.666Z,99.99